createdAt,value
2023-05-03T00:00:30.950Z,0.00
2023-05-03T00:01:02.899Z,0.00
2023-05-03T00:01:34.603Z,0.00
2023-05-03T00:02:06.532Z,0.00
2023-05-03T00:02:38.368Z,0.00
2023-05-03T00:03:10.579Z,0.00
2023-05-03T00:03:42.414Z,0.00
2023-05-03T00:04:14.370Z,0.00
2023-05-03T00:04:46.391Z,0.00
2023-05-03T00:05:04.688Z,0.00
2023-05-03T00:05:46.489Z,0.00
2023-05-03T00:06:18.267Z,0.00
2023-05-03T00:06:50.587Z,0.00
2023-05-03T00:07:22.267Z,0.00
2023-05-03T00:07:54.197Z,0.00
2023-05-03T00:08:26.218Z,0.00
2023-05-03T00:08:58.318Z,0.00
2023-05-03T00:09:30.149Z,0.00
2023-05-03T00:10:03.212Z,0.00
2023-05-03T00:10:34.135Z,0.00
2023-05-03T00:11:06.079Z,0.00
2023-05-03T00:11:38.054Z,0.00
2023-05-03T00:12:10.120Z,0.00
2023-05-03T00:12:42.020Z,0.00
2023-05-03T00:13:14.067Z,0.00
2023-05-03T00:13:45.838Z,0.00
2023-05-03T00:14:17.956Z,0.00
2023-05-03T00:14:34.087Z,0.00
2023-05-03T00:15:19.598Z,0.00
2023-05-03T00:15:50.182Z,0.00
2023-05-03T00:16:21.932Z,0.00
2023-05-03T00:16:53.778Z,0.00
2023-05-03T00:17:25.953Z,0.00
2023-05-03T00:17:57.983Z,0.00
2023-05-03T00:18:29.868Z,0.00
2023-05-03T00:19:02.313Z,0.00
2023-05-03T00:19:33.832Z,0.00
2023-05-03T00:20:06.278Z,0.00
2023-05-03T00:20:37.810Z,0.00
2023-05-03T00:21:09.926Z,0.00
2023-05-03T00:21:41.653Z,0.00
2023-05-03T00:22:13.844Z,0.00
2023-05-03T00:22:45.532Z,0.00
2023-05-03T00:23:17.473Z,0.00
2023-05-03T00:23:49.895Z,0.00
2023-05-03T00:24:21.821Z,0.00
2023-05-03T00:24:53.403Z,0.00
2023-05-03T00:25:25.784Z,0.00
2023-05-03T00:25:57.547Z,0.00
2023-05-03T00:26:29.779Z,0.00
2023-05-03T00:27:01.829Z,0.00
2023-05-03T00:27:17.388Z,0.00
2023-05-03T00:28:01.682Z,0.00
2023-05-03T00:28:33.409Z,0.00
2023-05-03T00:29:05.437Z,0.00
2023-05-03T00:29:37.355Z,0.00
2023-05-03T00:30:11.073Z,0.00
2023-05-03T00:30:41.434Z,0.00
2023-05-03T00:31:13.342Z,0.00
2023-05-03T00:31:45.127Z,0.00
2023-05-03T00:32:17.292Z,0.00
2023-05-03T00:32:33.404Z,0.00
2023-05-03T00:33:17.308Z,0.00
2023-05-03T00:33:49.656Z,0.00
2023-05-03T00:34:21.207Z,0.00
2023-05-03T00:34:53.220Z,0.00
2023-05-03T00:35:25.510Z,0.00
2023-05-03T00:35:57.119Z,0.00
2023-05-03T00:36:29.130Z,0.00
2023-05-03T00:37:01.243Z,0.00
2023-05-03T00:37:17.200Z,0.00
2023-05-03T00:37:49.149Z,0.00
2023-05-03T00:38:33.128Z,0.00
2023-05-03T00:39:05.480Z,0.00
2023-05-03T00:39:36.926Z,0.00
2023-05-03T00:40:09.199Z,0.00
2023-05-03T00:40:41.047Z,0.00
2023-05-03T00:41:12.809Z,0.00
2023-05-03T00:41:44.800Z,0.00
2023-05-03T00:42:16.862Z,0.00
2023-05-03T00:42:48.849Z,0.00
2023-05-03T00:43:20.793Z,0.00
2023-05-03T00:43:52.901Z,0.00
2023-05-03T00:44:24.762Z,0.00
2023-05-03T00:44:56.753Z,0.00
2023-05-03T00:45:28.996Z,0.00
2023-05-03T00:46:08.645Z,0.00
2023-05-03T00:46:20.103Z,0.00
2023-05-03T00:47:01.100Z,0.00
2023-05-03T00:47:32.676Z,0.00
2023-05-03T00:48:05.020Z,0.00
2023-05-03T00:48:36.768Z,0.00
2023-05-03T00:49:08.561Z,0.00
2023-05-03T00:49:41.005Z,0.00
2023-05-03T00:50:12.835Z,0.00
2023-05-03T00:50:44.488Z,0.00
2023-05-03T00:51:16.534Z,0.00
2023-05-03T00:51:48.622Z,0.00
2023-05-03T00:52:20.536Z,0.00
2023-05-03T00:52:52.450Z,0.00
2023-05-03T00:53:24.408Z,0.00
2023-05-03T00:53:56.434Z,0.00
2023-05-03T00:54:28.227Z,0.00
2023-05-03T00:55:00.884Z,0.00
2023-05-03T00:55:32.286Z,0.00
2023-05-03T00:56:04.678Z,0.00
2023-05-03T00:56:44.305Z,0.00
2023-05-03T00:57:09.573Z,0.00
2023-05-03T00:57:40.329Z,0.00
2023-05-03T00:58:12.214Z,0.00
2023-05-03T00:58:44.163Z,0.00
2023-05-03T00:59:16.110Z,0.00
2023-05-03T00:59:48.165Z,0.00
2023-05-03T01:00:20.795Z,0.00
2023-05-03T01:00:52.106Z,0.00
2023-05-03T01:01:23.921Z,0.00
2023-05-03T01:01:56.139Z,0.00
2023-05-03T01:02:28.288Z,0.00
2023-05-03T01:02:59.964Z,0.00
2023-05-03T01:03:16.086Z,0.00
2023-05-03T01:04:00.162Z,0.00
2023-05-03T01:04:32.164Z,0.00
2023-05-03T01:05:04.544Z,0.00
2023-05-03T01:05:35.678Z,0.00
2023-05-03T01:06:07.980Z,0.00
2023-05-03T01:06:40.122Z,0.00
2023-05-03T01:07:11.796Z,0.00
2023-05-03T01:07:43.698Z,0.00
2023-05-03T01:08:02.950Z,0.00
2023-05-03T01:08:31.854Z,0.00
2023-05-03T01:08:47.696Z,0.00
2023-05-03T01:09:19.933Z,0.00
2023-05-03T01:09:51.532Z,0.00
2023-05-03T01:10:24.129Z,0.00
2023-05-03T01:10:55.500Z,0.00
2023-05-03T01:11:27.623Z,0.00
2023-05-03T01:11:59.623Z,0.00
2023-05-03T01:12:15.505Z,0.00
2023-05-03T01:12:47.487Z,0.00
2023-05-03T01:13:31.638Z,0.00
2023-05-03T01:14:04.015Z,0.00
2023-05-03T01:14:35.388Z,0.00
2023-05-03T01:15:08.772Z,0.00
2023-05-03T01:15:39.398Z,0.00
2023-05-03T01:16:11.550Z,0.00
2023-05-03T01:16:43.236Z,0.00
2023-05-03T01:16:59.657Z,0.00
2023-05-03T01:17:43.385Z,0.00
2023-05-03T01:18:15.295Z,0.00
2023-05-03T01:18:47.289Z,0.00
2023-05-03T01:19:19.315Z,0.00
2023-05-03T01:19:51.205Z,0.00
2023-05-03T01:20:23.559Z,0.00
2023-05-03T01:20:55.250Z,0.00
2023-05-03T01:21:26.960Z,0.00
2023-05-03T01:21:59.195Z,0.00
2023-05-03T01:22:31.269Z,0.00
2023-05-03T01:23:03.418Z,0.00
2023-05-03T01:23:35.056Z,0.00
2023-05-03T01:24:07.155Z,0.00
2023-05-03T01:24:38.939Z,0.00
2023-05-03T01:25:11.424Z,0.00
2023-05-03T01:25:42.848Z,0.00
2023-05-03T01:25:59.495Z,0.00
2023-05-03T01:26:31.179Z,0.00
2023-05-03T01:26:47.159Z,0.00
2023-05-03T01:27:19.079Z,0.00
2023-05-03T01:27:50.930Z,0.00
2023-05-03T01:28:07.070Z,0.00
2023-05-03T01:28:38.743Z,0.00
2023-05-03T01:29:22.945Z,0.00
2023-05-03T01:29:54.673Z,0.00
2023-05-03T01:30:27.163Z,0.00
2023-05-03T01:30:58.853Z,0.00
2023-05-03T01:31:30.989Z,0.00
2023-05-03T01:32:03.285Z,0.00
2023-05-03T01:32:34.699Z,0.00
2023-05-03T01:33:06.708Z,0.00
2023-05-03T01:33:38.748Z,0.00
2023-05-03T01:34:10.695Z,0.00
2023-05-03T01:34:42.533Z,0.00
2023-05-03T01:34:58.843Z,0.00
2023-05-03T01:35:42.954Z,0.00
2023-05-03T01:36:14.759Z,0.00
2023-05-03T01:36:46.665Z,0.00
2023-05-03T01:37:18.532Z,0.00
2023-05-03T01:37:50.748Z,0.00
2023-05-03T01:38:22.576Z,0.00
2023-05-03T01:38:54.306Z,0.00
2023-05-03T01:39:26.496Z,0.00
2023-05-03T01:39:58.579Z,0.00
2023-05-03T01:40:30.777Z,0.00
2023-05-03T01:41:03.123Z,0.00
2023-05-03T01:41:34.348Z,0.00
2023-05-03T01:42:06.179Z,0.00
2023-05-03T01:42:38.501Z,0.00
2023-05-03T01:43:10.564Z,0.00
2023-05-03T01:43:42.230Z,0.00
2023-05-03T01:44:14.279Z,0.00
2023-05-03T01:44:46.249Z,0.00
2023-05-03T01:45:19.374Z,0.00
2023-05-03T01:45:50.425Z,0.00
2023-05-03T01:46:22.263Z,0.00
2023-05-03T01:46:54.080Z,0.00
2023-05-03T01:47:26.189Z,0.00
2023-05-03T01:47:58.060Z,0.00
2023-05-03T01:48:30.299Z,0.00
2023-05-03T01:49:02.941Z,0.00
2023-05-03T01:49:34.020Z,0.00
2023-05-03T01:50:06.330Z,0.00
2023-05-03T01:50:38.101Z,0.00
2023-05-03T01:51:10.143Z,0.00
2023-05-03T01:51:42.126Z,0.00
2023-05-03T01:52:14.099Z,0.00
2023-05-03T01:52:30.241Z,0.00
2023-05-03T01:53:02.667Z,0.00
2023-05-03T01:53:45.802Z,0.00
2023-05-03T01:54:17.926Z,0.00
2023-05-03T01:54:49.909Z,0.00
2023-05-03T01:55:21.939Z,0.00
2023-05-03T01:55:53.859Z,0.00
2023-05-03T01:56:25.687Z,0.00
2023-05-03T01:56:57.642Z,0.00
2023-05-03T01:57:13.727Z,0.00
2023-05-03T01:57:57.673Z,0.00
2023-05-03T01:58:29.846Z,0.00
2023-05-03T01:59:02.398Z,0.00
2023-05-03T01:59:33.635Z,0.00
2023-05-03T02:00:06.822Z,0.00
2023-05-03T02:00:37.752Z,0.00
2023-05-03T02:01:09.715Z,0.00
2023-05-03T02:01:41.582Z,0.00
2023-05-03T02:01:57.561Z,0.00
2023-05-03T02:02:29.754Z,0.00
2023-05-03T02:02:45.488Z,0.00
2023-05-03T02:03:17.471Z,0.00
2023-05-03T02:03:49.600Z,0.00
2023-05-03T02:04:21.342Z,0.00
2023-05-03T02:04:53.716Z,0.00
2023-05-03T02:05:25.519Z,0.00
2023-05-03T02:05:57.312Z,0.00
2023-05-03T02:06:13.478Z,0.00
2023-05-03T02:06:45.409Z,0.00
2023-05-03T02:07:29.617Z,0.00
2023-05-03T02:08:01.292Z,0.00
2023-05-03T02:08:17.336Z,0.00
2023-05-03T02:08:49.071Z,0.00
2023-05-03T02:09:33.402Z,0.00
2023-05-03T02:10:05.847Z,0.00
2023-05-03T02:10:36.983Z,0.00
2023-05-03T02:11:09.306Z,0.00
2023-05-03T02:11:41.364Z,0.00
2023-05-03T02:12:13.243Z,0.00
2023-05-03T02:12:44.931Z,0.00
2023-05-03T02:13:17.107Z,0.00
2023-05-03T02:13:48.966Z,0.00
2023-05-03T02:14:21.002Z,0.00
2023-05-03T02:14:53.103Z,0.00
2023-05-03T02:15:25.310Z,0.00
2023-05-03T02:15:57.009Z,0.00
2023-05-03T02:16:28.991Z,0.00
2023-05-03T02:16:44.926Z,0.00
2023-05-03T02:17:17.004Z,0.00
2023-05-03T02:18:00.825Z,0.00
2023-05-03T02:18:32.973Z,0.00
2023-05-03T02:19:04.861Z,0.00
2023-05-03T02:19:36.635Z,0.00
2023-05-03T02:20:09.019Z,0.00
2023-05-03T02:20:40.883Z,0.00
2023-05-03T02:21:12.535Z,0.00
2023-05-03T02:21:28.901Z,0.00
2023-05-03T02:22:12.601Z,0.00
2023-05-03T02:22:44.581Z,0.00
2023-05-03T02:23:16.639Z,0.00
2023-05-03T02:23:48.576Z,0.00
2023-05-03T02:24:20.779Z,0.00
2023-05-03T02:24:52.691Z,0.00
2023-05-03T02:25:26.927Z,0.00
2023-05-03T02:25:56.424Z,0.00
2023-05-03T02:26:12.555Z,0.00
2023-05-03T02:26:44.389Z,0.00
2023-05-03T02:27:28.467Z,0.00
2023-05-03T02:28:00.413Z,0.00
2023-05-03T02:28:16.422Z,0.00
2023-05-03T02:28:48.524Z,0.00
2023-05-03T02:29:32.478Z,0.00
2023-05-03T02:30:06.655Z,0.00
2023-05-03T02:30:36.335Z,0.00
2023-05-03T02:31:08.308Z,0.00
2023-05-03T02:31:40.240Z,0.00
2023-05-03T02:32:12.333Z,0.00
2023-05-03T02:32:44.096Z,0.00
2023-05-03T02:33:16.102Z,0.00
2023-05-03T02:33:48.274Z,0.00
2023-05-03T02:34:20.337Z,0.00
2023-05-03T02:34:51.954Z,0.00
2023-05-03T02:35:24.433Z,0.00
2023-05-03T02:35:56.220Z,0.00
2023-05-03T02:36:28.132Z,0.00
2023-05-03T02:37:00.233Z,0.00
2023-05-03T02:37:32.119Z,0.00
2023-05-03T02:38:04.110Z,0.00
2023-05-03T02:38:36.075Z,0.00
2023-05-03T02:39:07.789Z,0.00
2023-05-03T02:39:39.903Z,0.00
2023-05-03T02:40:12.218Z,0.00
2023-05-03T02:40:43.867Z,0.00
2023-05-03T02:41:16.068Z,0.00
2023-05-03T02:41:47.766Z,0.00
2023-05-03T02:42:19.960Z,0.00
2023-05-03T02:42:51.742Z,0.00
2023-05-03T02:43:23.743Z,0.00
2023-05-03T02:43:55.690Z,0.00
2023-05-03T02:44:11.921Z,0.00
2023-05-03T02:44:43.664Z,0.00
2023-05-03T02:45:28.076Z,0.00
2023-05-03T02:45:43.766Z,0.00
2023-05-03T02:46:27.587Z,0.00
2023-05-03T02:46:43.728Z,0.00
2023-05-03T02:47:27.651Z,0.00
2023-05-03T02:47:59.805Z,0.00
2023-05-03T02:48:31.453Z,0.00
2023-05-03T02:49:04.269Z,0.00
2023-05-03T02:49:35.467Z,0.00
2023-05-03T02:50:08.097Z,0.00
2023-05-03T02:50:39.583Z,0.00
2023-05-03T02:50:55.795Z,0.00
2023-05-03T02:51:39.515Z,0.00
2023-05-03T02:52:11.534Z,0.00
2023-05-03T02:52:43.397Z,0.00
2023-05-03T02:53:15.313Z,0.00
2023-05-03T02:53:47.431Z,0.00
2023-05-03T02:54:19.267Z,0.00
2023-05-03T02:54:51.517Z,0.00
2023-05-03T02:55:23.505Z,0.00
2023-05-03T02:55:55.154Z,0.00
2023-05-03T02:56:27.296Z,0.00
2023-05-03T02:56:59.470Z,0.00
2023-05-03T02:57:31.246Z,0.00
2023-05-03T02:58:03.643Z,0.00
2023-05-03T02:58:35.232Z,0.00
2023-05-03T02:59:07.146Z,0.00
2023-05-03T02:59:39.069Z,0.00
2023-05-03T02:59:55.147Z,0.00
2023-05-03T03:00:27.351Z,0.00
2023-05-03T03:00:43.037Z,0.00
2023-05-03T03:01:15.168Z,0.00
2023-05-03T03:01:46.950Z,0.00
2023-05-03T03:02:18.935Z,0.00
2023-05-03T03:02:51.187Z,0.00
2023-05-03T03:03:23.188Z,0.00
2023-05-03T03:03:54.955Z,0.00
2023-05-03T03:04:11.135Z,0.00
2023-05-03T03:04:42.764Z,0.00
2023-05-03T03:05:27.241Z,0.00
2023-05-03T03:05:59.054Z,0.00
2023-05-03T03:06:30.959Z,0.00
2023-05-03T03:07:03.702Z,0.00
2023-05-03T03:07:34.766Z,0.00
2023-05-03T03:08:06.787Z,0.00
2023-05-03T03:08:38.944Z,0.00
2023-05-03T03:08:54.782Z,0.00
2023-05-03T03:09:38.889Z,0.00
2023-05-03T03:10:10.989Z,0.00
2023-05-03T03:10:42.802Z,0.00
2023-05-03T03:11:14.443Z,0.00
2023-05-03T03:11:46.509Z,0.00
2023-05-03T03:12:18.655Z,0.00
2023-05-03T03:12:50.711Z,0.00
2023-05-03T03:13:22.429Z,0.00
2023-05-03T03:13:54.510Z,0.00
2023-05-03T03:14:26.517Z,0.00
2023-05-03T03:14:58.493Z,0.00
2023-05-03T03:15:30.927Z,0.00
2023-05-03T03:16:03.191Z,0.00
2023-05-03T03:16:34.318Z,0.00
2023-05-03T03:17:06.412Z,0.00
2023-05-03T03:17:38.416Z,0.00
2023-05-03T03:17:54.582Z,0.00
2023-05-03T03:18:26.287Z,0.00
2023-05-03T03:18:42.552Z,0.00
2023-05-03T03:19:14.368Z,0.00
2023-05-03T03:19:46.138Z,0.00
2023-05-03T03:20:18.542Z,0.00
2023-05-03T03:20:50.368Z,0.00
2023-05-03T03:21:22.228Z,0.00
2023-05-03T03:21:54.187Z,0.00
2023-05-03T03:22:10.276Z,0.00
2023-05-03T03:22:42.086Z,0.00
2023-05-03T03:23:26.210Z,0.00
2023-05-03T03:23:57.957Z,0.00
2023-05-03T03:24:30.351Z,0.00
2023-05-03T03:25:03.421Z,0.00
2023-05-03T03:25:34.097Z,0.00
2023-05-03T03:26:06.094Z,0.00
2023-05-03T03:26:38.847Z,0.00
2023-05-03T03:26:55.341Z,0.00
2023-05-03T03:27:39.678Z,0.00
2023-05-03T03:28:10.067Z,0.00
2023-05-03T03:28:41.815Z,0.00
2023-05-03T03:29:13.713Z,0.00
2023-05-03T03:29:45.931Z,0.00
2023-05-03T03:30:18.973Z,0.00
2023-05-03T03:30:49.697Z,0.00
2023-05-03T03:31:21.692Z,0.00
2023-05-03T03:31:53.896Z,0.00
2023-05-03T03:32:25.758Z,0.00
2023-05-03T03:32:57.802Z,0.00
2023-05-03T03:33:29.849Z,0.00
2023-05-03T03:34:01.962Z,0.00
2023-05-03T03:34:33.847Z,0.00
2023-05-03T03:35:06.171Z,0.00
2023-05-03T03:35:37.524Z,0.00
2023-05-03T03:36:09.722Z,0.00
2023-05-03T03:36:41.810Z,0.00
2023-05-03T03:37:13.465Z,0.00
2023-05-03T03:37:45.396Z,0.00
2023-05-03T03:38:17.532Z,0.00
2023-05-03T03:38:49.596Z,0.00
2023-05-03T03:39:21.589Z,0.00
2023-05-03T03:39:53.404Z,0.00
2023-05-03T03:40:09.848Z,0.00
2023-05-03T03:40:41.335Z,0.00
2023-05-03T03:41:25.401Z,0.00
2023-05-03T03:41:57.478Z,0.00
2023-05-03T03:42:29.317Z,0.00
2023-05-03T03:43:01.862Z,0.00
2023-05-03T03:43:33.443Z,0.00
2023-05-03T03:44:05.259Z,0.00
2023-05-03T03:44:37.199Z,0.00
2023-05-03T03:44:53.420Z,0.00
2023-05-03T03:45:37.593Z,0.00
2023-05-03T03:46:09.415Z,0.00
2023-05-03T03:46:41.345Z,0.00
2023-05-03T03:47:13.233Z,0.00
2023-05-03T03:47:45.106Z,0.00
2023-05-03T03:48:17.147Z,0.00
2023-05-03T03:48:49.117Z,0.00
2023-05-03T03:49:21.112Z,0.00
2023-05-03T03:49:53.016Z,0.00
2023-05-03T03:50:25.317Z,0.00
2023-05-03T03:50:57.057Z,0.00
2023-05-03T03:51:28.901Z,0.00
2023-05-03T03:52:01.349Z,0.00
2023-05-03T03:52:32.927Z,0.00
2023-05-03T03:53:04.905Z,0.00
2023-05-03T03:53:36.771Z,0.00
2023-05-03T03:53:52.899Z,0.00
2023-05-03T03:54:24.789Z,0.00
2023-05-03T03:54:40.872Z,0.00
2023-05-03T03:55:13.319Z,0.00
2023-05-03T03:55:44.635Z,0.00
2023-05-03T03:56:16.578Z,0.00
2023-05-03T03:56:48.770Z,0.00
2023-05-03T03:57:21.059Z,0.36
2023-05-03T03:57:52.652Z,0.00
2023-05-03T03:58:08.809Z,0.00
2023-05-03T03:58:40.706Z,0.00
2023-05-03T03:59:24.747Z,0.00
2023-05-03T03:59:56.647Z,0.85
2023-05-03T04:00:28.853Z,0.36
2023-05-03T04:01:00.849Z,0.00
2023-05-03T04:01:32.506Z,0.00
2023-05-03T04:02:04.750Z,0.36
2023-05-03T04:02:36.382Z,0.00
2023-05-03T04:02:52.564Z,0.00
2023-05-03T04:03:36.546Z,0.36
2023-05-03T04:04:08.758Z,1.22
2023-05-03T04:04:40.734Z,0.85
2023-05-03T04:05:12.896Z,1.71
2023-05-03T04:05:44.540Z,0.85
2023-05-03T04:06:16.714Z,1.22
2023-05-03T04:06:48.773Z,1.71
2023-05-03T04:07:20.277Z,0.36
2023-05-03T04:07:52.549Z,1.71
2023-05-03T04:08:24.612Z,1.71
2023-05-03T04:08:56.252Z,1.71
2023-05-03T04:09:28.360Z,2.08
2023-05-03T04:10:01.181Z,2.57
2023-05-03T04:10:32.414Z,2.08
2023-05-03T04:11:05.030Z,2.57
2023-05-03T04:11:36.282Z,2.08
2023-05-03T04:12:08.324Z,2.57
2023-05-03T04:12:40.474Z,3.43
2023-05-03T04:13:12.487Z,2.57
2023-05-03T04:13:44.088Z,3.43
2023-05-03T04:14:16.187Z,2.94
2023-05-03T04:14:48.236Z,3.43
2023-05-03T04:15:20.775Z,3.43
2023-05-03T04:15:52.355Z,3.79
2023-05-03T04:16:08.229Z,3.79
2023-05-03T04:16:40.129Z,3.79
2023-05-03T04:17:24.166Z,4.77
2023-05-03T04:17:56.017Z,4.28
2023-05-03T04:18:27.965Z,4.77
2023-05-03T04:19:00.253Z,4.77
2023-05-03T04:19:32.007Z,4.77
2023-05-03T04:20:05.146Z,4.28
2023-05-03T04:20:35.804Z,4.77
2023-05-03T04:21:07.891Z,5.63
2023-05-03T04:21:40.177Z,5.99
2023-05-03T04:22:11.970Z,5.99
2023-05-03T04:22:43.758Z,6.48
2023-05-03T04:23:15.759Z,5.63
2023-05-03T04:23:47.923Z,6.48
2023-05-03T04:24:19.887Z,6.85
2023-05-03T04:24:52.008Z,7.34
2023-05-03T04:25:08.058Z,6.85
2023-05-03T04:25:51.807Z,7.34
2023-05-03T04:26:31.209Z,7.34
2023-05-03T04:26:55.781Z,7.70
2023-05-03T04:27:27.545Z,7.70
2023-05-03T04:27:59.770Z,8.19
2023-05-03T04:28:31.830Z,8.19
2023-05-03T04:29:04.641Z,8.56
2023-05-03T04:29:35.481Z,9.05
2023-05-03T04:30:09.027Z,9.54
2023-05-03T04:30:39.904Z,10.39
2023-05-03T04:31:11.614Z,9.54
2023-05-03T04:31:43.476Z,10.77
2023-05-03T04:32:15.368Z,9.91
2023-05-03T04:32:47.414Z,11.25
2023-05-03T04:33:19.678Z,10.39
2023-05-03T04:33:51.728Z,10.39
2023-05-03T04:34:07.461Z,11.25
2023-05-03T04:34:39.435Z,10.77
2023-05-03T04:34:55.383Z,10.77
2023-05-03T04:35:27.692Z,10.77
2023-05-03T04:35:59.392Z,11.25
2023-05-03T04:36:31.540Z,11.62
2023-05-03T04:37:04.290Z,11.62
2023-05-03T04:37:35.184Z,11.62
2023-05-03T04:38:07.110Z,11.25
2023-05-03T04:38:39.439Z,12.48
2023-05-03T04:39:11.364Z,12.11
2023-05-03T04:39:43.213Z,12.48
2023-05-03T04:40:15.226Z,12.48
2023-05-03T04:40:47.053Z,12.97
2023-05-03T04:41:19.187Z,13.33
2023-05-03T04:41:51.363Z,13.33
2023-05-03T04:42:23.077Z,13.82
2023-05-03T04:42:39.556Z,13.82
2023-05-03T04:43:11.110Z,15.17
2023-05-03T04:43:54.957Z,15.17
2023-05-03T04:44:28.129Z,15.17
2023-05-03T04:44:58.901Z,15.17
2023-05-03T04:45:31.263Z,16.02
2023-05-03T04:46:03.952Z,15.53
2023-05-03T04:46:34.888Z,16.02
2023-05-03T04:47:06.680Z,16.02
2023-05-03T04:47:23.029Z,15.53
2023-05-03T04:48:06.780Z,17.73
2023-05-03T04:48:39.058Z,16.88
2023-05-03T04:49:11.055Z,17.25
2023-05-03T04:49:42.662Z,18.11
2023-05-03T04:50:14.850Z,17.73
2023-05-03T04:50:46.686Z,18.11
2023-05-03T04:51:18.795Z,18.11
2023-05-03T04:51:50.521Z,18.60
2023-05-03T04:52:06.625Z,18.60
2023-05-03T04:52:38.956Z,19.45
2023-05-03T04:53:22.738Z,19.94
2023-05-03T04:53:54.607Z,19.94
2023-05-03T04:54:27.549Z,20.31
2023-05-03T04:54:58.729Z,20.31
2023-05-03T04:55:30.718Z,20.80
2023-05-03T04:56:03.101Z,21.65
2023-05-03T04:56:34.270Z,21.65
2023-05-03T04:57:06.291Z,22.02
2023-05-03T04:57:38.332Z,22.87
2023-05-03T04:58:10.585Z,23.85
2023-05-03T04:58:42.192Z,24.71
2023-05-03T04:59:14.197Z,24.71
2023-05-03T04:59:46.316Z,25.56
2023-05-03T05:00:21.344Z,26.42
2023-05-03T05:00:50.436Z,26.79
2023-05-03T05:01:22.390Z,26.79
2023-05-03T05:01:38.290Z,27.28
2023-05-03T05:02:10.365Z,27.65
2023-05-03T05:02:54.324Z,28.63
2023-05-03T05:03:26.155Z,28.99
2023-05-03T05:03:58.195Z,30.34
2023-05-03T05:04:30.196Z,30.34
2023-05-03T05:05:06.043Z,31.56
2023-05-03T05:05:34.038Z,32.05
2023-05-03T05:06:05.931Z,33.39
2023-05-03T05:06:22.278Z,32.90
2023-05-03T05:07:05.941Z,34.62
2023-05-03T05:07:38.009Z,35.48
2023-05-03T05:08:10.182Z,36.33
2023-05-03T05:08:41.856Z,36.33
2023-05-03T05:09:13.939Z,36.33
2023-05-03T05:09:45.888Z,38.17
2023-05-03T05:10:17.974Z,38.17
2023-05-03T05:10:49.960Z,37.68
2023-05-03T05:11:21.938Z,38.17
2023-05-03T05:11:55.363Z,38.17
2023-05-03T05:12:25.689Z,39.02
2023-05-03T05:12:57.733Z,39.02
2023-05-03T05:13:29.750Z,38.17
2023-05-03T05:14:02.148Z,38.53
2023-05-03T05:14:33.561Z,39.02
2023-05-03T05:15:06.796Z,39.88
2023-05-03T05:15:21.986Z,39.88
2023-05-03T05:15:53.889Z,40.24
2023-05-03T05:16:37.719Z,41.59
2023-05-03T05:17:09.617Z,41.10
2023-05-03T05:17:41.703Z,41.96
2023-05-03T05:18:13.543Z,42.94
2023-05-03T05:18:45.508Z,45.02
2023-05-03T05:19:17.384Z,46.36
2023-05-03T05:19:49.456Z,47.22
2023-05-03T05:20:21.892Z,48.93
2023-05-03T05:20:53.360Z,49.79
2023-05-03T05:21:25.251Z,50.28
2023-05-03T05:21:57.160Z,49.79
2023-05-03T05:22:29.300Z,51.50
2023-05-03T05:23:01.561Z,51.99
2023-05-03T05:23:33.153Z,52.85
2023-05-03T05:23:49.396Z,53.70
2023-05-03T05:24:22.405Z,55.90
2023-05-03T05:24:37.333Z,56.27
2023-05-03T05:25:09.780Z,56.76
2023-05-03T05:25:41.483Z,57.25
2023-05-03T05:26:13.141Z,58.11
2023-05-03T05:26:45.076Z,59.82
2023-05-03T05:27:17.133Z,60.19
2023-05-03T05:27:49.221Z,60.68
2023-05-03T05:28:05.757Z,61.17
2023-05-03T05:28:36.975Z,61.53
2023-05-03T05:29:21.293Z,63.24
2023-05-03T05:29:52.965Z,65.45
2023-05-03T05:30:25.331Z,63.24
2023-05-03T05:30:56.888Z,63.24
2023-05-03T05:31:29.235Z,61.17
2023-05-03T05:32:01.141Z,64.96
2023-05-03T05:32:32.812Z,63.24
2023-05-03T05:33:07.532Z,69.73
2023-05-03T05:33:36.863Z,67.16
2023-05-03T05:34:08.739Z,74.14
2023-05-03T05:34:45.696Z,80.25
2023-05-03T05:35:13.036Z,82.82
2023-05-03T05:35:44.777Z,85.88
2023-05-03T05:36:16.882Z,86.73
2023-05-03T05:36:48.815Z,89.31
2023-05-03T05:37:05.394Z,89.31
2023-05-03T05:37:49.025Z,92.73
2023-05-03T05:38:20.799Z,94.93
2023-05-03T05:38:52.712Z,95.79
2023-05-03T05:39:26.409Z,94.56
2023-05-03T05:39:56.541Z,94.07
2023-05-03T05:40:28.934Z,94.07
2023-05-03T05:41:00.638Z,94.93
2023-05-03T05:41:32.628Z,95.42
2023-05-03T05:42:04.925Z,97.99
2023-05-03T05:42:36.389Z,97.13
2023-05-03T05:43:08.415Z,98.85
2023-05-03T05:43:40.557Z,100.56
2023-05-03T05:44:12.409Z,101.41
2023-05-03T05:44:44.472Z,104.48
2023-05-03T05:45:17.759Z,103.13
2023-05-03T05:45:48.392Z,102.27
2023-05-03T05:46:05.005Z,103.13
2023-05-03T05:46:36.154Z,101.90
2023-05-03T05:47:20.641Z,102.76
2023-05-03T05:47:52.269Z,104.48
2023-05-03T05:48:24.164Z,105.82
2023-05-03T05:48:56.341Z,107.90
2023-05-03T05:49:28.417Z,111.82
2023-05-03T05:50:00.707Z,115.36
2023-05-03T05:50:32.323Z,112.30
2023-05-03T05:50:48.583Z,112.30
2023-05-03T05:51:32.113Z,110.59
2023-05-03T05:52:04.589Z,111.82
2023-05-03T05:52:35.883Z,116.22
2023-05-03T05:53:08.082Z,113.65
2023-05-03T05:53:40.196Z,76.70
2023-05-03T05:54:11.942Z,74.99
2023-05-03T05:54:45.689Z,72.42
2023-05-03T05:55:16.105Z,86.24
2023-05-03T05:55:48.902Z,83.19
2023-05-03T05:56:20.222Z,87.96
2023-05-03T05:56:51.802Z,66.80
2023-05-03T05:57:23.782Z,97.99
2023-05-03T05:57:55.879Z,103.13
2023-05-03T05:58:27.865Z,106.19
2023-05-03T05:58:59.751Z,79.27
2023-05-03T05:59:31.734Z,71.93
2023-05-03T05:59:47.883Z,71.56
2023-05-03T06:00:22.621Z,77.19
2023-05-03T06:00:35.753Z,77.56
2023-05-03T06:01:07.737Z,65.45
2023-05-03T06:01:39.858Z,76.34
2023-05-03T06:02:11.655Z,87.59
2023-05-03T06:02:43.737Z,82.33
2023-05-03T06:03:15.565Z,67.16
2023-05-03T06:03:47.682Z,77.19
2023-05-03T06:04:04.083Z,85.39
2023-05-03T06:04:35.540Z,103.61
2023-05-03T06:05:20.394Z,79.27
2023-05-03T06:05:51.436Z,77.19
2023-05-03T06:06:23.655Z,76.70
2023-05-03T06:06:55.418Z,78.41
2023-05-03T06:07:27.370Z,76.70
2023-05-03T06:07:59.537Z,78.41
2023-05-03T06:08:15.532Z,79.27
2023-05-03T06:08:47.480Z,81.97
2023-05-03T06:09:31.529Z,86.73
2023-05-03T06:10:06.172Z,91.51
2023-05-03T06:10:35.230Z,93.22
2023-05-03T06:11:07.198Z,93.58
2023-05-03T06:11:39.267Z,91.51
2023-05-03T06:12:12.717Z,90.16
2023-05-03T06:12:43.118Z,86.24
2023-05-03T06:13:15.115Z,84.53
2023-05-03T06:13:47.258Z,84.53
2023-05-03T06:14:19.583Z,108.88
2023-05-03T06:15:01.798Z,146.19
2023-05-03T06:15:23.470Z,101.90
2023-05-03T06:15:55.077Z,102.27
2023-05-03T06:16:27.070Z,103.13
2023-05-03T06:16:59.276Z,99.34
2023-05-03T06:17:31.234Z,103.13
2023-05-03T06:17:47.158Z,103.61
2023-05-03T06:18:19.145Z,104.10
2023-05-03T06:18:35.021Z,105.33
2023-05-03T06:19:06.840Z,104.96
2023-05-03T06:19:39.034Z,104.48
2023-05-03T06:20:11.376Z,103.61
2023-05-03T06:20:42.960Z,104.10
2023-05-03T06:21:14.915Z,104.10
2023-05-03T06:21:46.815Z,113.65
2023-05-03T06:22:05.382Z,114.02
2023-05-03T06:22:34.749Z,115.73
2023-05-03T06:23:19.323Z,120.13
2023-05-03T06:23:51.154Z,121.36
2023-05-03T06:24:22.986Z,124.41
2023-05-03T06:24:55.026Z,128.33
2023-05-03T06:25:27.266Z,128.82
2023-05-03T06:25:58.832Z,125.76
2023-05-03T06:26:31.061Z,126.61
2023-05-03T06:26:47.034Z,130.53
2023-05-03T06:27:31.030Z,137.51
2023-05-03T06:28:03.478Z,143.50
2023-05-03T06:28:34.895Z,137.51
2023-05-03T06:29:06.693Z,143.99
2023-05-03T06:29:38.906Z,141.42
2023-05-03T06:30:12.882Z,170.05
2023-05-03T06:30:42.588Z,168.21
2023-05-03T06:31:14.759Z,178.24
2023-05-03T06:31:46.795Z,176.90
2023-05-03T06:32:18.718Z,189.98
2023-05-03T06:32:51.732Z,185.58
2023-05-03T06:33:22.660Z,199.04
2023-05-03T06:33:54.574Z,202.10
2023-05-03T06:34:26.324Z,200.39
2023-05-03T06:34:58.532Z,195.98
2023-05-03T06:35:32.699Z,192.56
2023-05-03T06:36:03.160Z,189.98
2023-05-03T06:36:34.554Z,192.56
2023-05-03T06:37:06.336Z,193.90
2023-05-03T06:37:38.478Z,193.05
2023-05-03T06:38:10.603Z,195.98
2023-05-03T06:38:42.250Z,138.36
2023-05-03T06:39:14.303Z,138.36
2023-05-03T06:39:46.116Z,117.93
2023-05-03T06:40:18.643Z,131.39
2023-05-03T06:40:50.367Z,133.59
2023-05-03T06:41:22.241Z,120.50
2023-05-03T06:41:54.110Z,95.79
2023-05-03T06:42:26.065Z,99.34
2023-05-03T06:42:57.776Z,93.22
2023-05-03T06:43:14.123Z,91.87
2023-05-03T06:43:46.018Z,90.16
2023-05-03T06:44:30.063Z,88.82
2023-05-03T06:45:04.891Z,87.59
2023-05-03T06:45:33.700Z,86.24
2023-05-03T06:46:06.055Z,85.39
2023-05-03T06:46:37.923Z,85.39
2023-05-03T06:47:09.973Z,87.10
2023-05-03T06:47:41.704Z,91.51
2023-05-03T06:48:13.977Z,97.50
2023-05-03T06:48:46.656Z,106.19
2023-05-03T06:49:17.744Z,114.51
2023-05-03T06:49:49.745Z,116.58
2023-05-03T06:50:22.222Z,124.90
2023-05-03T06:50:55.834Z,155.73